Time;durP1;ratioP1;P1;durP2;ratioP2;P2;SDS_P1;SDS_P2;PMS_P1;PMS_P2;Temp;Humidity;BMP_temperature;BMP_pressure;BME280_temperature;BME280_humidity;BME280_pressure;Samples;Min_cycle;Max_cycle;Signal;HPM_P1;HPM_P2
2023/07/04 00:09:27;;;;;;;15.30;8.10;;;;;;;14.82;64.77;99121.81;431438;1270;139930;-67
2023/07/04 00:19:52;;;;;;;13.60;8.10;;;;;;;14.65;65.55;99133.08;431256;1270;140510;-68
2023/07/04 00:30:16;;;;;;;12.00;8.80;;;;;;;14.65;66.14;99139.10;431324;1270;139990;-68
2023/07/04 00:40:40;;;;;;;10.30;9.00;;;;;;;14.67;66.39;99140.80;431772;1268;141061;-68
2023/07/04 00:51:04;;;;;;;17.20;8.40;;;;;;;14.74;66.89;99140.12;431530;1268;139356;-68
2023/07/04 01:01:28;;;;;;;13.40;9.10;;;;;;;14.76;67.11;99144.15;431692;1268;139410;-68
2023/07/04 01:11:54;;;;;;;13.10;9.30;;;;;;;14.75;67.88;99147.21;431677;1268;139976;-67
2023/07/04 01:22:25;;;;;;;17.10;9.10;;;;;;;14.76;68.24;99147.16;432039;1270;139973;-67
2023/07/04 01:32:52;;;;;;;13.40;8.40;;;;;;;14.76;67.83;99146.66;431641;1270;140792;-68
2023/07/04 01:43:17;;;;;;;10.90;8.00;;;;;;;14.81;68.38;99144.45;431208;1268;140330;-67
2023/07/04 01:53:41;;;;;;;10.60;7.70;;;;;;;14.82;68.66;99136.38;431258;1270;139639;-68
2023/07/04 02:04:05;;;;;;;10.60;8.30;;;;;;;14.73;68.99;99135.75;431168;1270;140870;-68
2023/07/04 02:14:29;;;;;;;11.20;8.20;;;;;;;14.63;69.07;99140.52;431327;1268;139925;-68
2023/07/04 02:24:53;;;;;;;15.20;9.60;;;;;;;14.55;69.44;99145.95;431342;1270;140919;-69
2023/07/04 02:35:18;;;;;;;13.00;8.50;;;;;;;14.46;69.63;99149.23;431510;1268;139572;-68
2023/07/04 02:45:44;;;;;;;10.90;8.70;;;;;;;14.30;70.25;99151.77;431745;1268;139729;-69
2023/07/04 02:56:08;;;;;;;15.90;8.20;;;;;;;14.28;70.73;99155.33;431700;1268;139352;-68
2023/07/04 03:06:31;;;;;;;9.90;7.90;;;;;;;14.34;70.94;99151.63;431840;1270;140410;-71
2023/07/04 03:16:55;;;;;;;15.20;9.00;;;;;;;14.74;71.11;99139.88;432094;1267;140166;-68
2023/07/04 03:27:20;;;;;;;13.10;8.50;;;;;;;15.37;70.56;99142.73;432355;1270;139793;-68
2023/07/04 03:37:44;;;;;;;16.00;8.30;;;;;;;16.16;68.93;99153.89;431991;1268;141056;-69
2023/07/04 03:48:08;;;;;;;12.10;8.30;;;;;;;16.62;67.71;99160.85;431830;1268;139689;-68
2023/07/04 03:58:32;;;;;;;14.50;8.30;;;;;;;17.04;66.30;99160.19;431794;1270;141051;-69
2023/07/04 04:08:56;;;;;;;12.20;7.90;;;;;;;19.06;65.12;99160.04;431870;1270;139311;-70
2023/07/04 04:19:20;;;;;;;11.20;7.60;;;;;;;24.24;56.79;99156.58;431242;1268;139124;-69
2023/07/04 04:29:44;;;;;;;9.30;7.10;;;;;;;24.57;51.61;99158.77;431479;1268;138655;-69
2023/07/04 04:40:10;;;;;;;13.30;6.90;;;;;;;26.92;48.72;99170.42;431687;1270;138980;-69
2023/07/04 04:50:35;;;;;;;11.30;7.00;;;;;;;30.99;42.75;99176.95;431539;1268;139417;-68
2023/07/04 05:01:06;;;;;;;10.10;6.40;;;;;;;34.86;37.54;99180.40;431315;1270;140780;-68
2023/07/04 05:11:32;;;;;;;7.60;5.70;;;;;;;39.42;32.24;99176.90;433936;1270;139050;-69
2023/07/04 05:21:56;;;;;;;8.20;5.80;;;;;;;40.12;28.61;99181.82;431446;1270;138525;-67
2023/07/04 05:32:20;;;;;;;16.80;6.50;;;;;;;37.96;27.67;99186.33;431350;1270;139126;-68
2023/07/04 05:42:44;;;;;;;12.40;6.80;;;;;;;38.97;26.98;99184.73;431201;1271;140000;-67
2023/07/04 05:53:09;;;;;;;8.90;4.20;;;;;;;43.11;24.50;99176.20;431998;1271;139410;-69
2023/07/04 06:03:33;;;;;;;6.10;3.80;;;;;;;46.59;21.67;99177.21;432165;1271;138459;-70
2023/07/04 06:13:57;;;;;;;7.40;3.70;;;;;;;49.84;19.39;99175.25;432442;1268;138874;-70
2023/07/04 06:24:22;;;;;;;8.30;3.10;;;;;;;52.13;17.31;99174.48;431401;1268;139454;-67
2023/07/04 06:34:46;;;;;;;12.00;4.10;;;;;;;53.59;15.56;99183.48;431628;1267;142375;-64
2023/07/04 06:45:10;;;;;;;8.10;4.50;;;;;;;54.63;14.30;99182.52;431205;1273;138711;-72
2023/07/04 06:55:34;;;;;;;8.10;4.50;;;;;;;55.11;13.04;99179.45;431939;1271;138939;-70
2023/07/04 07:06:00;;;;;;;5.10;4.80;;;;;;;55.94;12.28;99186.33;432186;1271;139128;-74
2023/07/04 07:16:25;;;;;;;5.20;4.80;;;;;;;56.21;11.75;99190.71;431537;1272;140261;-71
2023/07/04 07:26:49;;;;;;;7.10;6.40;;;;;;;57.28;11.05;99189.45;431546;1273;139111;-66
2023/07/04 07:37:13;;;;;;;5.90;5.50;;;;;;;57.30;10.70;99183.00;432154;1270;138989;-67
2023/07/04 07:47:37;;;;;;;5.30;4.80;;;;;;;56.80;10.65;99168.52;433890;1271;139707;-67
2023/07/04 07:58:01;;;;;;;6.20;2.70;;;;;;;55.46;10.08;99156.65;431727;1271;139094;-68
2023/07/04 08:08:26;;;;;;;5.90;2.70;;;;;;;46.63;12.47;99148.14;431604;1272;138582;-73
2023/07/04 08:18:50;;;;;;;10.60;2.80;;;;;;;40.02;15.39;99150.86;431699;1271;139624;-64
2023/07/04 08:29:15;;;;;;;7.00;2.50;;;;;;;36.36;17.44;99158.13;431439;1267;139501;-69
2023/07/04 08:39:38;;;;;;;10.60;3.20;;;;;;;34.42;19.08;99162.55;431985;1271;140003;-63
2023/07/04 08:50:09;;;;;;;6.80;3.30;;;;;;;33.21;20.19;99157.67;431281;1270;139870;-69
2023/07/04 09:00:36;;;;;;;5.00;2.90;;;;;;;32.20;21.29;99152.61;434234;1267;139644;-74
2023/07/04 09:11:04;;;;;;;4.20;2.80;;;;;;;31.43;22.13;99148.66;432110;1273;139444;-64
2023/07/04 09:21:30;;;;;;;7.00;3.30;;;;;;;31.15;22.92;99147.45;432597;1267;138564;-67
2023/07/04 09:31:56;;;;;;;5.00;3.10;;;;;;;30.91;23.32;99153.79;431958;1272;139617;-68
2023/07/04 09:42:22;;;;;;;10.30;3.40;;;;;;;30.66;23.94;99154.42;431618;1267;138543;-68
2023/07/04 09:53:09;;;;;;;9.00;3.60;;;;;;;30.35;24.32;99157.38;431296;1267;139204;-69
2023/07/04 10:03:33;;;;;;;9.80;4.70;;;;;;;29.69;24.79;99165.12;431845;1267;139629;-67
2023/07/04 10:14:03;;;;;;;7.10;3.70;;;;;;;29.40;25.21;99161.55;431885;1271;138598;-69
2023/07/04 10:24:28;;;;;;;5.70;3.80;;;;;;;29.17;25.22;99153.42;431344;1267;139141;-65
2023/07/04 10:34:53;;;;;;;6.90;4.30;;;;;;;28.86;25.65;99146.20;431553;1267;139436;-64
2023/07/04 10:45:19;;;;;;;10.20;4.30;;;;;;;28.72;26.06;99141.49;431561;1272;139673;-64
2023/07/04 10:55:47;;;;;;;7.40;5.30;;;;;;;28.62;26.37;99143.45;431428;1271;139315;-66
2023/07/04 11:06:19;;;;;;;7.70;4.20;;;;;;;28.49;26.01;99150.64;431828;1267;138781;-66
2023/07/04 11:16:44;;;;;;;5.10;4.60;;;;;;;28.37;25.93;99145.09;433340;1267;139304;-73
2023/07/04 11:27:14;;;;;;;5.30;4.10;;;;;;;28.35;26.18;99139.19;434189;1267;138649;-71
2023/07/04 11:37:44;;;;;;;7.40;4.40;;;;;;;28.30;26.54;99132.73;433160;1268;138662;-71
2023/07/04 11:48:15;;;;;;;7.80;4.50;;;;;;;28.29;26.46;99128.84;431592;1267;139725;-71
2023/07/04 11:58:39;;;;;;;9.60;6.10;;;;;;;28.23;26.41;99127.73;431798;1267;139134;-72
2023/07/04 12:09:04;;;;;;;11.90;7.10;;;;;;;28.06;26.43;99129.40;433632;1268;138514;-73
2023/07/04 12:19:28;;;;;;;7.60;6.60;;;;;;;28.01;26.34;99125.50;433846;1267;138915;-73
2023/07/04 12:29:52;;;;;;;10.00;6.80;;;;;;;27.95;26.65;99115.86;433962;1268;139784;-72
2023/07/04 12:40:29;;;;;;;10.80;6.80;;;;;;;27.99;27.05;99105.88;434155;1267;139844;-71
2023/07/04 12:50:54;;;;;;;13.20;7.00;;;;;;;28.06;27.24;99108.44;432925;1270;138863;-75
2023/07/04 13:01:28;;;;;;;8.10;6.40;;;;;;;28.05;27.20;99102.86;432463;1267;139252;-70
2023/07/04 13:11:52;;;;;;;9.90;7.60;;;;;;;28.21;27.62;99108.63;433678;1268;139038;-69
2023/07/04 13:22:18;;;;;;;13.40;9.10;;;;;;;28.21;27.44;99109.88;432368;1267;139265;-64
2023/07/04 13:32:46;;;;;;;19.30;8.70;;;;;;;28.30;27.78;99113.70;432257;1267;139271;-63
2023/07/04 13:43:24;;;;;;;13.30;9.90;;;;;;;28.55;27.37;99119.27;431308;1268;139588;-64
2023/07/04 13:53:52;;;;;;;12.50;10.50;;;;;;;28.77;26.68;99115.06;431375;1270;140026;-64
2023/07/04 14:04:16;;;;;;;12.40;9.90;;;;;;;28.79;26.57;99113.64;431751;1268;139306;-66
2023/07/04 14:14:43;;;;;;;15.70;10.70;;;;;;;28.34;26.90;99110.07;431312;1267;139410;-63
2023/07/04 14:25:10;;;;;;;21.00;11.60;;;;;;;28.10;27.18;99105.44;431780;1267;141116;-62
2023/07/04 14:35:38;;;;;;;10.60;9.60;;;;;;;28.02;27.46;99106.94;431619;1267;139459;-63
2023/07/04 14:46:04;;;;;;;11.90;10.20;;;;;;;27.87;27.63;99108.05;431940;1267;139084;-75
2023/07/04 14:56:28;;;;;;;14.30;11.20;;;;;;;27.58;27.97;99100.55;432071;1270;139919;-75
2023/07/04 15:07:12;;;;;;;16.30;11.00;;;;;;;27.37;28.27;99103.33;431386;1267;139545;-76
2023/07/04 15:17:36;;;;;;;13.70;10.50;;;;;;;27.27;28.34;99105.87;431164;1266;140718;-75
2023/07/04 15:28:00;;;;;;;14.20;12.70;;;;;;;27.11;28.10;99110.55;431400;1267;138672;-75
2023/07/04 15:38:24;;;;;;;15.00;11.80;;;;;;;26.90;28.55;99110.44;431450;1270;139024;-75
2023/07/04 15:48:49;;;;;;;18.80;15.60;;;;;;;26.75;29.08;99106.46;431406;1268;138901;-75
2023/07/04 15:59:13;;;;;;;16.40;14.20;;;;;;;26.61;29.52;99105.83;431656;1268;140346;-72
2023/07/04 16:09:37;;;;;;;18.20;16.30;;;;;;;26.48;29.97;99105.86;431231;1268;138872;-73
2023/07/04 16:20:01;;;;;;;20.70;16.10;;;;;;;26.26;30.21;99109.17;430231;1267;139705;-71
2023/07/04 16:30:26;;;;;;;17.50;15.40;;;;;;;26.05;30.55;99116.80;430606;1267;140001;-72
2023/07/04 16:40:51;;;;;;;18.60;16.40;;;;;;;26.01;30.80;99122.85;431094;1270;139417;-72
2023/07/04 16:51:15;;;;;;;21.30;17.20;;;;;;;26.03;30.79;99126.54;435218;1267;139080;-72
2023/07/04 17:01:39;;;;;;;16.20;14.50;;;;;;;26.15;30.61;99129.41;431470;1267;139260;-72
2023/07/04 17:12:05;;;;;;;21.60;15.20;;;;;;;25.74;30.91;99129.40;431684;1269;138928;-72
2023/07/04 17:22:29;;;;;;;17.40;13.70;;;;;;;25.38;31.41;99134.70;432103;1267;141220;-71
2023/07/04 17:32:53;;;;;;;19.70;14.70;;;;;;;25.05;31.90;99138.39;431943;1268;138840;-72
2023/07/04 17:43:18;;;;;;;19.10;14.30;;;;;;;24.76;32.31;99145.20;432542;1267;139145;-72
2023/07/04 17:53:42;;;;;;;17.50;12.80;;;;;;;24.45;32.91;99153.39;432373;1268;139407;-72
2023/07/04 18:04:06;;;;;;;16.80;14.20;;;;;;;24.11;33.43;99162.45;431535;1268;138722;-71
2023/07/04 18:14:31;;;;;;;18.70;14.80;;;;;;;23.75;33.81;99169.79;432195;1268;138797;-71
2023/07/04 18:24:56;;;;;;;18.70;13.50;;;;;;;23.37;34.11;99188.67;431451;1270;140474;-71
2023/07/04 18:35:20;;;;;;;19.10;16.00;;;;;;;22.95;34.79;99201.80;431427;1270;139801;-71
2023/07/04 18:45:44;;;;;;;14.70;12.90;;;;;;;22.45;36.15;99211.31;431532;1268;138809;-72
2023/07/04 18:56:09;;;;;;;31.10;16.00;;;;;;;21.96;37.03;99223.71;431316;1268;139598;-72
2023/07/04 19:06:35;;;;;;;21.60;15.30;;;;;;;21.53;38.12;99235.11;431635;1267;139275;-71
2023/07/04 19:16:59;;;;;;;20.40;16.70;;;;;;;21.12;39.35;99245.06;431556;1270;139438;-71
2023/07/04 19:27:23;;;;;;;17.20;14.90;;;;;;;20.70;40.68;99249.10;431059;1270;138788;-71
2023/07/04 19:37:48;;;;;;;23.00;15.30;;;;;;;20.25;41.60;99262.59;430809;1267;140565;-71
2023/07/04 19:48:11;;;;;;;28.80;16.00;;;;;;;19.81;42.93;99273.29;431402;1268;140304;-72
2023/07/04 19:58:36;;;;;;;23.50;14.60;;;;;;;19.40;43.92;99288.05;431233;1267;139896;-69
2023/07/04 20:09:00;;;;;;;22.20;15.50;;;;;;;19.05;45.05;99285.70;431414;1268;138884;-72
2023/07/04 20:19:24;;;;;;;24.80;15.10;;;;;;;18.72;46.36;99293.38;431466;1270;139662;-72
2023/07/04 20:29:49;;;;;;;29.10;20.40;;;;;;;18.43;47.60;99302.48;431242;1270;139543;-72
2023/07/04 20:40:13;;;;;;;21.30;14.80;;;;;;;18.13;48.78;99312.05;431329;1268;139601;-71
2023/07/04 20:50:38;;;;;;;17.80;15.60;;;;;;;17.84;49.95;99321.05;432547;1268;139464;-72
2023/07/04 21:01:02;;;;;;;19.80;14.60;;;;;;;17.54;51.06;99335.27;431422;1268;139892;-72
2023/07/04 21:11:27;;;;;;;23.70;15.10;;;;;;;17.29;52.03;99346.35;431016;1268;138965;-71
2023/07/04 21:21:51;;;;;;;20.50;16.10;;;;;;;17.03;53.25;99363.84;431786;1270;139539;-72
2023/07/04 21:32:15;;;;;;;20.80;15.70;;;;;;;16.76;54.21;99373.71;431872;1268;139001;-71
2023/07/04 21:42:40;;;;;;;22.70;16.00;;;;;;;16.57;55.02;99379.36;431628;1270;139814;-71
2023/07/04 21:53:04;;;;;;;19.40;15.50;;;;;;;16.50;55.99;99386.89;431423;1270;140550;-71
2023/07/04 22:03:28;;;;;;;19.80;16.50;;;;;;;16.52;56.40;99396.84;431236;1268;139230;-72
2023/07/04 22:13:53;;;;;;;18.80;16.50;;;;;;;16.52;56.93;99401.69;431531;1268;140220;-72
2023/07/04 22:24:17;;;;;;;19.60;15.10;;;;;;;16.37;57.76;99407.34;431349;1270;139062;-71
2023/07/04 22:34:41;;;;;;;22.40;16.30;;;;;;;16.16;58.49;99413.98;431192;1268;139391;-70
2023/07/04 22:45:07;;;;;;;19.50;16.40;;;;;;;15.98;59.06;99412.21;431225;1268;139221;-72
2023/07/04 22:55:30;;;;;;;18.60;15.60;;;;;;;15.78;59.56;99411.15;431269;1268;139665;-71
2023/07/04 23:05:54;;;;;;;24.50;16.90;;;;;;;15.59;60.35;99408.38;431104;1268;140854;-71
2023/07/04 23:16:21;;;;;;;23.50;17.30;;;;;;;15.60;60.79;99415.87;431300;1271;140928;-70
2023/07/04 23:26:45;;;;;;;20.30;17.30;;;;;;;15.60;60.75;99422.75;431064;1270;140036;-70
2023/07/04 23:37:09;;;;;;;19.00;15.40;;;;;;;15.62;61.40;99430.13;431179;1271;141373;-70
2023/07/04 23:47:33;;;;;;;20.70;16.10;;;;;;;15.60;61.91;99431.94;431154;1270;141016;-70
2023/07/04 23:57:58;;;;;;;21.20;16.20;;;;;;;15.49;62.50;99434.64;431259;1270;140598;-69
